Time;durP1;ratioP1;P1;durP2;ratioP2;P2;SDS_P1;SDS_P2;PMS_P1;PMS_P2;Temp;Humidity;BMP_temperature;BMP_pressure;BME280_temperature;BME280_humidity;BME280_pressure;Samples;Min_cycle;Max_cycle;Signal;HPM_P1;HPM_P2
2022/04/21 00:00:43;;;;;;;1999.90;999.90;;;;;;;;;;5085889;28;20227;-73
2022/04/21 00:03:11;;;;;;;1999.90;999.90;;;;;;;;;;5086477;28;20232;-73
2022/04/21 00:05:38;;;;;;;1999.90;999.90;;;;;;;;;;5088406;28;20274;-73
2022/04/21 00:08:06;;;;;;;1999.90;999.90;;;;;;;;;;5083133;28;20239;-74
2022/04/21 00:10:34;;;;;;;1999.90;999.90;;;;;;;;;;5077217;28;20254;-72
2022/04/21 00:13:01;;;;;;;1999.90;999.90;;;;;;;;;;5088036;28;20235;-74
2022/04/21 00:15:30;;;;;;;1999.90;999.90;;;;;;;;;;5085159;28;20242;-73
2022/04/21 00:17:58;;;;;;;1999.90;999.90;;;;;;;;;;5082310;28;20224;-73
2022/04/21 00:20:26;;;;;;;1999.90;999.90;;;;;;;;;;5079802;28;20232;-73
2022/04/21 00:25:39;;;;;;;1999.90;999.90;;;;;;;;;;5083478;28;20733;-73
2022/04/21 00:28:07;;;;;;;1999.90;999.90;;;;;;;;;;5084258;28;20257;-74
2022/04/21 00:30:36;;;;;;;1999.90;999.90;;;;;;;;;;5086050;28;20725;-73
2022/04/21 00:33:04;;;;;;;1999.90;999.90;;;;;;;;;;5084987;28;20311;-73
2022/04/21 00:35:32;;;;;;;1999.90;999.90;;;;;;;;;;5084794;28;20262;-73
2022/04/21 00:37:59;;;;;;;1999.90;999.90;;;;;;;;;;5112256;27;20230;-73
2022/04/21 00:40:29;;;;;;;1999.90;999.90;;;;;;;;;;5082212;28;20223;-73
2022/04/21 00:42:57;;;;;;;1999.90;999.90;;;;;;;;;;5082078;28;20227;-74
2022/04/21 00:45:26;;;;;;;1999.90;999.90;;;;;;;;;;5084769;28;20316;-72
2022/04/21 00:47:56;;;;;;;1999.90;999.90;;;;;;;;;;5088045;28;20289;-73
2022/04/21 00:50:25;;;;;;;1999.90;999.90;;;;;;;;;;5086125;28;20227;-73
2022/04/21 00:52:53;;;;;;;1999.90;999.90;;;;;;;;;;5097750;27;20228;-73
2022/04/21 01:15:18;;;;;;;1999.90;999.90;;;;;;;;;;5084592;28;20231;-72
2022/04/21 01:17:46;;;;;;;1999.90;999.90;;;;;;;;;;5115522;27;20693;-73
2022/04/21 01:20:16;;;;;;;1999.90;999.90;;;;;;;;;;5081406;28;20289;-73
2022/04/21 01:22:44;;;;;;;1999.90;999.90;;;;;;;;;;5083678;28;20270;-73
2022/04/21 01:25:11;;;;;;;1999.90;999.90;;;;;;;;;;5084180;28;20235;-73
2022/04/21 01:27:39;;;;;;;1999.90;999.90;;;;;;;;;;5116766;27;20227;-73
2022/04/21 01:30:08;;;;;;;1999.90;999.90;;;;;;;;;;5086576;28;20228;-73
2022/04/21 01:32:36;;;;;;;1999.90;999.90;;;;;;;;;;5086977;28;20223;-73
2022/04/21 01:35:05;;;;;;;1999.90;999.90;;;;;;;;;;5116363;27;20262;-73
2022/04/21 01:43:04;;;;;;;1999.90;999.90;;;;;;;;;;5115336;27;20305;-73
2022/04/21 01:45:32;;;;;;;1999.90;999.90;;;;;;;;;;5120863;27;20657;-73
2022/04/21 01:47:59;;;;;;;1999.90;999.90;;;;;;;;;;5087188;28;20219;-73
2022/04/21 01:50:27;;;;;;;1999.90;999.90;;;;;;;;;;5081954;28;20227;-73
2022/04/21 01:52:57;;;;;;;1999.90;999.90;;;;;;;;;;5083829;28;20231;-74
2022/04/21 01:55:24;;;;;;;1999.90;999.90;;;;;;;;;;5080575;28;20245;-73
2022/04/21 01:57:52;;;;;;;1999.90;999.90;;;;;;;;;;5081684;28;20223;-72
2022/04/21 02:00:20;;;;;;;1999.90;999.90;;;;;;;;;;5084469;28;20226;-73
2022/04/21 02:02:47;;;;;;;1999.90;999.90;;;;;;;;;;5105851;27;20642;-73
2022/04/21 02:05:16;;;;;;;1999.90;999.90;;;;;;;;;;5112297;27;20278;-72
2022/04/21 02:07:44;;;;;;;1999.90;999.90;;;;;;;;;;5080736;28;20469;-73
2022/04/21 02:10:14;;;;;;;1999.90;999.90;;;;;;;;;;5084487;28;20231;-73
2022/04/21 02:12:55;;;;;;;1999.90;999.90;;;;;;;;;;5111085;27;20698;-73
2022/04/21 02:15:23;;;;;;;1999.90;999.90;;;;;;;;;;5116558;27;20235;-73
2022/04/21 02:17:51;;;;;;;1999.90;999.90;;;;;;;;;;5059764;28;20228;-73
2022/04/21 02:20:19;;;;;;;1999.90;999.90;;;;;;;;;;5076437;28;20223;-73
2022/04/21 02:22:47;;;;;;;1999.90;999.90;;;;;;;;;;5082450;28;20240;-73
2022/04/21 02:25:17;;;;;;;1999.90;999.90;;;;;;;;;;5111674;27;20296;-73
2022/04/21 02:27:45;;;;;;;1999.90;999.90;;;;;;;;;;5077142;28;20313;-73
2022/04/21 02:30:14;;;;;;;1999.90;999.90;;;;;;;;;;5080631;28;20231;-73
2022/04/21 02:32:42;;;;;;;1999.90;999.90;;;;;;;;;;5082999;28;20284;-73
2022/04/21 02:35:10;;;;;;;1999.90;999.90;;;;;;;;;;5081875;28;20296;-74
2022/04/21 02:37:38;;;;;;;1999.90;999.90;;;;;;;;;;5081100;28;20227;-74
2022/04/21 02:40:06;;;;;;;1999.90;999.90;;;;;;;;;;5084793;28;20231;-74
2022/04/21 02:42:38;;;;;;;1999.90;999.90;;;;;;;;;;5079142;28;20743;-73
2022/04/21 02:45:06;;;;;;;1999.90;999.90;;;;;;;;;;5079295;28;21070;-73
2022/04/21 02:47:35;;;;;;;1999.90;999.90;;;;;;;;;;5083287;28;20709;-74
2022/04/21 02:50:03;;;;;;;1999.90;999.90;;;;;;;;;;5083562;28;20235;-73
2022/04/21 02:52:30;;;;;;;1999.90;999.90;;;;;;;;;;5080336;27;20243;-74
2022/04/21 02:57:45;;;;;;;1999.90;999.90;;;;;;;;;;5078892;28;20223;-74
2022/04/21 03:00:13;;;;;;;1999.90;999.90;;;;;;;;;;5086655;28;20332;-73
2022/04/21 03:02:41;;;;;;;1999.90;999.90;;;;;;;;;;5087111;28;20317;-71
2022/04/21 03:05:23;;;;;;;1999.90;999.90;;;;;;;;;;5087303;28;20732;-74
2022/04/21 03:07:51;;;;;;;1999.90;999.90;;;;;;;;;;5087443;28;20232;-75
2022/04/21 03:10:18;;;;;;;1999.90;999.90;;;;;;;;;;5087813;28;20256;-74
2022/04/21 03:12:47;;;;;;;1999.90;999.90;;;;;;;;;;5086070;28;20227;-74
2022/04/21 03:15:15;;;;;;;1999.90;999.90;;;;;;;;;;5083762;28;20247;-74
2022/04/21 03:17:42;;;;;;;1999.90;999.90;;;;;;;;;;5085313;28;20347;-74
2022/04/21 03:24:18;;;;;;;1999.90;999.90;;;;;;;;;;5085624;28;20223;-74
2022/04/21 03:25:44;;;;;;;1999.90;999.90;;;;;;;;;;5079093;28;20392;-74
2022/04/21 03:28:13;;;;;;;1999.90;999.90;;;;;;;;;;5082918;28;20242;-74
2022/04/21 03:30:41;;;;;;;1999.90;999.90;;;;;;;;;;5082967;28;20231;-74
2022/04/21 03:33:09;;;;;;;1999.90;999.90;;;;;;;;;;5119573;27;20581;-74
2022/04/21 03:35:36;;;;;;;1999.90;999.90;;;;;;;;;;5080347;28;20235;-73
2022/04/21 03:38:04;;;;;;;1999.90;999.90;;;;;;;;;;5085634;28;20226;-74
2022/04/21 03:40:31;;;;;;;1999.90;999.90;;;;;;;;;;5085075;28;20227;-74
2022/04/21 03:42:59;;;;;;;1999.90;999.90;;;;;;;;;;5081377;28;20310;-74
2022/04/21 03:45:29;;;;;;;1999.90;999.90;;;;;;;;;;5083455;28;21827;-73
2022/04/21 03:47:58;;;;;;;1999.90;999.90;;;;;;;;;;5084541;28;20247;-73
2022/04/21 03:50:26;;;;;;;1999.90;999.90;;;;;;;;;;5118110;27;20238;-73
2022/04/21 03:52:53;;;;;;;1999.90;999.90;;;;;;;;;;5083018;28;20246;-73
2022/04/21 03:55:21;;;;;;;1999.90;999.90;;;;;;;;;;5081177;28;20324;-74
2022/04/21 03:57:48;;;;;;;1999.90;999.90;;;;;;;;;;5114601;27;20232;-73
2022/04/21 04:00:16;;;;;;;1999.90;999.90;;;;;;;;;;5067516;28;20779;-73
2022/04/21 04:02:45;;;;;;;1999.90;999.90;;;;;;;;;;5073104;28;21095;-74
2022/04/21 04:05:13;;;;;;;1999.90;999.90;;;;;;;;;;5082326;28;20241;-74
2022/04/21 04:13:11;;;;;;;1999.90;999.90;;;;;;;;;;5083919;28;20774;-75
2022/04/21 04:15:39;;;;;;;1999.90;999.90;;;;;;;;;;5109412;27;20734;-75
2022/04/21 04:18:07;;;;;;;1999.90;999.90;;;;;;;;;;5085156;28;20223;-74
2022/04/21 04:20:35;;;;;;;1999.90;999.90;;;;;;;;;;5081358;28;20580;-75
2022/04/21 04:23:03;;;;;;;1999.90;999.90;;;;;;;;;;5085962;28;20219;-74
2022/04/21 04:25:30;;;;;;;1999.90;999.90;;;;;;;;;;5082510;28;20271;-75
2022/04/21 04:27:58;;;;;;;1999.90;999.90;;;;;;;;;;5080501;28;20744;-75
2022/04/21 04:30:31;;;;;;;1999.90;999.90;;;;;;;;;;5079621;28;20723;-75
2022/04/21 04:32:59;;;;;;;1999.90;999.90;;;;;;;;;;5083491;28;20223;-73
2022/04/21 04:35:29;;;;;;;1999.90;999.90;;;;;;;;;;5078969;28;20706;-77
2022/04/21 04:37:56;;;;;;;1999.90;999.90;;;;;;;;;;5082399;28;20726;-74
2022/04/21 04:40:25;;;;;;;1999.90;999.90;;;;;;;;;;5082000;28;20313;-74
2022/04/21 04:42:52;;;;;;;1999.90;999.90;;;;;;;;;;5076081;28;21017;-73
2022/04/21 04:48:05;;;;;;;1999.90;999.90;;;;;;;;;;5079349;28;20292;-79
2022/04/21 04:50:34;;;;;;;1999.90;999.90;;;;;;;;;;5060576;28;20277;-78
2022/04/21 04:53:08;;;;;;;1999.90;999.90;;;;;;;;;;5082318;28;20281;-79
2022/04/21 04:55:35;;;;;;;1999.90;999.90;;;;;;;;;;5079275;28;20228;-77
2022/04/21 04:58:03;;;;;;;1999.90;999.90;;;;;;;;;;5083585;28;20255;-78
2022/04/21 05:00:30;;;;;;;1999.90;999.90;;;;;;;;;;5066561;28;20793;-79
2022/04/21 05:02:58;;;;;;;1999.90;999.90;;;;;;;;;;5081703;28;20231;-78
2022/04/21 05:05:25;;;;;;;1999.90;999.90;;;;;;;;;;5086153;28;20231;-79
2022/04/21 05:07:54;;;;;;;1999.90;999.90;;;;;;;;;;5078552;28;20235;-79
2022/04/21 05:10:23;;;;;;;1999.90;999.90;;;;;;;;;;5116074;27;20259;-78
2022/04/21 05:12:50;;;;;;;1999.90;999.90;;;;;;;;;;5085174;28;20315;-78
2022/04/21 05:15:18;;;;;;;1999.90;999.90;;;;;;;;;;5081141;28;20717;-72
2022/04/21 05:17:46;;;;;;;1999.90;999.90;;;;;;;;;;5087008;28;20258;-74
2022/04/21 05:20:29;;;;;;;1999.90;999.90;;;;;;;;;;5081042;28;20231;-74
2022/04/21 05:23:03;;;;;;;1999.90;999.90;;;;;;;;;;5097476;27;20227;-73
2022/04/21 05:25:31;;;;;;;1999.90;999.90;;;;;;;;;;5065933;28;20242;-75
2022/04/21 05:27:59;;;;;;;1999.90;999.90;;;;;;;;;;5081771;28;20239;-74
2022/04/21 05:33:15;;;;;;;1999.90;999.90;;;;;;;;;;5081408;28;20314;-74
2022/04/21 05:35:43;;;;;;;1999.90;999.90;;;;;;;;;;5113890;27;20236;-73
2022/04/21 05:38:16;;;;;;;1999.90;999.90;;;;;;;;;;5080242;28;20232;-73
2022/04/21 05:40:44;;;;;;;1999.90;999.90;;;;;;;;;;5068168;28;21050;-73
2022/04/21 05:43:12;;;;;;;1999.90;999.90;;;;;;;;;;5083246;28;20232;-74
2022/04/21 05:45:39;;;;;;;1999.90;999.90;;;;;;;;;;5065664;28;20238;-74
2022/04/21 05:48:07;;;;;;;1999.90;999.90;;;;;;;;;;5084384;28;20296;-74
2022/04/21 05:50:35;;;;;;;1999.90;999.90;;;;;;;;;;5090897;28;20807;-73
2022/04/21 05:53:04;;;;;;;1999.90;999.90;;;;;;;;;;5076880;28;20227;-74
2022/04/21 05:55:35;;;;;;;1999.90;999.90;;;;;;;;;;5078137;28;20228;-74
2022/04/21 05:58:03;;;;;;;1999.90;999.90;;;;;;;;;;5084465;28;20255;-73
2022/04/21 06:00:30;;;;;;;1999.90;999.90;;;;;;;;;;5082744;28;20238;-74
2022/04/21 06:02:58;;;;;;;1999.90;999.90;;;;;;;;;;5063597;28;20228;-73
2022/04/21 06:05:26;;;;;;;1999.90;999.90;;;;;;;;;;5076890;28;20235;-73
2022/04/21 06:07:53;;;;;;;1999.90;999.90;;;;;;;;;;5086488;28;20285;-73
2022/04/21 06:10:21;;;;;;;1999.90;999.90;;;;;;;;;;5064627;28;20318;-74
2022/04/21 06:12:50;;;;;;;1999.90;999.90;;;;;;;;;;5083380;28;20308;-74
2022/04/21 06:15:17;;;;;;;1999.90;999.90;;;;;;;;;;5082572;28;20238;-74
2022/04/21 06:17:46;;;;;;;1999.90;999.90;;;;;;;;;;5071965;28;20227;-74
2022/04/21 06:20:14;;;;;;;1999.90;999.90;;;;;;;;;;5076816;28;20775;-74
2022/04/21 06:22:41;;;;;;;1999.90;999.90;;;;;;;;;;5076023;28;20242;-73
2022/04/21 06:25:09;;;;;;;1999.90;999.90;;;;;;;;;;5080797;28;20239;-74
2022/04/21 06:27:37;;;;;;;1999.90;999.90;;;;;;;;;;5082821;28;20280;-74
2022/04/21 06:30:06;;;;;;;1999.90;999.90;;;;;;;;;;5080951;27;20776;-74
2022/04/21 06:32:34;;;;;;;1999.90;999.90;;;;;;;;;;5108502;27;20232;-74
2022/04/21 06:35:02;;;;;;;1999.90;999.90;;;;;;;;;;5084949;28;20235;-74
2022/04/21 06:37:29;;;;;;;1999.90;999.90;;;;;;;;;;5115749;27;20235;-74
2022/04/21 06:39:57;;;;;;;1999.90;999.90;;;;;;;;;;5084994;28;20258;-73
2022/04/21 06:42:25;;;;;;;1999.90;999.90;;;;;;;;;;5078362;28;20254;-74
2022/04/21 06:50:24;;;;;;;1999.90;999.90;;;;;;;;;;5082797;28;20232;-74
2022/04/21 06:52:52;;;;;;;1999.90;999.90;;;;;;;;;;5083656;28;20231;-74
2022/04/21 06:55:20;;;;;;;1999.90;999.90;;;;;;;;;;5080811;28;20288;-73
2022/04/21 06:57:47;;;;;;;1999.90;999.90;;;;;;;;;;5079324;28;20255;-75
2022/04/21 07:00:15;;;;;;;1999.90;999.90;;;;;;;;;;5085456;28;20289;-74
2022/04/21 07:02:45;;;;;;;1999.90;999.90;;;;;;;;;;5079741;28;20227;-73
2022/04/21 07:05:13;;;;;;;1999.90;999.90;;;;;;;;;;5119205;27;20238;-74
2022/04/21 07:07:41;;;;;;;1999.90;999.90;;;;;;;;;;5091184;28;20266;-75
2022/04/21 07:10:14;;;;;;;1999.90;999.90;;;;;;;;;;5097426;28;20783;-74
2022/04/21 07:12:42;;;;;;;1999.90;999.90;;;;;;;;;;5124867;27;20235;-75
2022/04/21 07:15:10;;;;;;;1999.90;999.90;;;;;;;;;;5095271;28;20292;-74
2022/04/21 07:17:38;;;;;;;1999.90;999.90;;;;;;;;;;5084680;28;20698;-75
2022/04/21 07:20:08;;;;;;;1999.90;999.90;;;;;;;;;;5094079;28;20227;-74
2022/04/21 07:22:36;;;;;;;1999.90;999.90;;;;;;;;;;5084050;28;20230;-74
2022/04/21 07:25:05;;;;;;;1999.90;999.90;;;;;;;;;;5091821;28;20282;-74
2022/04/21 07:27:32;;;;;;;1999.90;999.90;;;;;;;;;;5091118;28;20223;-75
2022/04/21 07:30:01;;;;;;;1999.90;999.90;;;;;;;;;;5089268;28;20246;-73
2022/04/21 07:32:28;;;;;;;1999.90;999.90;;;;;;;;;;5090158;28;20223;-73
2022/04/21 07:34:56;;;;;;;1999.90;999.90;;;;;;;;;;5088985;28;20246;-74
2022/04/21 07:37:25;;;;;;;1999.90;999.90;;;;;;;;;;5099975;28;20997;-74
2022/04/21 07:39:53;;;;;;;1999.90;999.90;;;;;;;;;;5078517;28;20924;-75
2022/04/21 07:42:22;;;;;;;1999.90;999.90;;;;;;;;;;5077446;27;20228;-75
2022/04/21 07:44:50;;;;;;;1999.90;999.90;;;;;;;;;;5116787;27;20239;-74
2022/04/21 07:47:17;;;;;;;1999.90;999.90;;;;;;;;;;5118816;27;20761;-75
2022/04/21 07:49:48;;;;;;;1999.90;999.90;;;;;;;;;;5078400;28;20239;-74
2022/04/21 07:55:09;;;;;;;1999.90;999.90;;;;;;;;;;5086557;28;20235;-74
2022/04/21 07:57:37;;;;;;;1999.90;999.90;;;;;;;;;;5067388;28;21169;-75
2022/04/21 08:00:05;;;;;;;1999.90;999.90;;;;;;;;;;5086258;28;20326;-74
2022/04/21 08:02:38;;;;;;;1999.90;999.90;;;;;;;;;;5092297;28;20230;-75
2022/04/21 08:05:06;;;;;;;1999.90;999.90;;;;;;;;;;5079265;28;20286;-74
2022/04/21 08:07:34;;;;;;;1999.90;999.90;;;;;;;;;;5090924;28;20232;-74
2022/04/21 08:10:02;;;;;;;1999.90;999.90;;;;;;;;;;5088880;28;20360;-74
2022/04/21 08:12:39;;;;;;;1999.90;999.90;;;;;;;;;;5084497;28;20242;-74
2022/04/21 08:15:07;;;;;;;1999.90;999.90;;;;;;;;;;5085577;28;20261;-74
2022/04/21 08:17:36;;;;;;;1999.90;999.90;;;;;;;;;;5077769;28;20701;-74
2022/04/21 08:20:04;;;;;;;1999.90;999.90;;;;;;;;;;5093650;28;20289;-74
2022/04/21 08:22:32;;;;;;;1999.90;999.90;;;;;;;;;;5072697;28;20228;-74
2022/04/21 08:33:24;;;;;;;1999.90;999.90;;;;;;;;;;5074766;28;21054;-75
2022/04/21 08:35:57;;;;;;;1999.90;999.90;;;;;;;;;;5082832;28;20238;-74
2022/04/21 08:38:25;;;;;;;1999.90;999.90;;;;;;;;;;5071962;28;20942;-74
2022/04/21 08:40:54;;;;;;;1999.90;999.90;;;;;;;;;;5095764;28;20306;-74
2022/04/21 08:43:23;;;;;;;1999.90;999.90;;;;;;;;;;5080135;28;20297;-74
2022/04/21 08:45:51;;;;;;;1999.90;999.90;;;;;;;;;;5083362;28;20239;-74
2022/04/21 08:48:20;;;;;;;1999.90;999.90;;;;;;;;;;5061433;28;20266;-74
2022/04/21 08:50:47;;;;;;;1999.90;999.90;;;;;;;;;;5093343;28;20841;-75
2022/04/21 08:53:16;;;;;;;1999.90;999.90;;;;;;;;;;5090787;28;20255;-74
2022/04/21 08:55:44;;;;;;;1999.90;999.90;;;;;;;;;;5082733;28;20325;-74
2022/04/21 08:58:12;;;;;;;1999.90;999.90;;;;;;;;;;5083180;28;20232;-74
2022/04/21 09:00:42;;;;;;;1999.90;999.90;;;;;;;;;;5073283;28;20227;-75
2022/04/21 09:03:10;;;;;;;1999.90;999.90;;;;;;;;;;5097544;28;20276;-75
2022/04/21 09:05:38;;;;;;;1999.90;999.90;;;;;;;;;;5076654;28;20798;-76
2022/04/21 09:08:17;;;;;;;1999.90;999.90;;;;;;;;;;5097005;28;20231;-76
2022/04/21 09:11:03;;;;;;;1999.90;999.90;;;;;;;;;;5083587;27;20240;-75
2022/04/21 09:13:31;;;;;;;1999.90;999.90;;;;;;;;;;5091293;28;20226;-75
2022/04/21 09:16:02;;;;;;;1999.90;999.90;;;;;;;;;;5087161;28;20224;-76
2022/04/21 09:18:36;;;;;;;1999.90;999.90;;;;;;;;;;5101039;28;20719;-75
2022/04/21 09:21:06;;;;;;;1999.90;999.90;;;;;;;;;;5090963;27;20231;-76
2022/04/21 09:23:34;;;;;;;1999.90;999.90;;;;;;;;;;5088758;28;20232;-76
2022/04/21 09:26:06;;;;;;;1999.90;999.90;;;;;;;;;;5096543;27;20231;-76
2022/04/21 09:28:34;;;;;;;1999.90;999.90;;;;;;;;;;5086844;28;20329;-76
2022/04/21 09:31:03;;;;;;;1999.90;999.90;;;;;;;;;;5089607;28;20322;-76
2022/04/21 09:33:31;;;;;;;1999.90;999.90;;;;;;;;;;5099149;28;20288;-76
2022/04/21 09:35:59;;;;;;;1999.90;999.90;;;;;;;;;;5084624;28;20259;-76
2022/04/21 09:38:27;;;;;;;1999.90;999.90;;;;;;;;;;5097602;28;20721;-76
2022/04/21 09:40:55;;;;;;;1999.90;999.90;;;;;;;;;;5074523;28;20231;-76
2022/04/21 09:43:26;;;;;;;1999.90;999.90;;;;;;;;;;5080925;28;20234;-76
2022/04/21 09:46:08;;;;;;;1999.90;999.90;;;;;;;;;;5081669;28;20232;-76
2022/04/21 09:48:37;;;;;;;1999.90;999.90;;;;;;;;;;5105377;27;20232;-75
2022/04/21 09:51:10;;;;;;;1999.90;999.90;;;;;;;;;;5093216;28;20236;-75
2022/04/21 09:53:51;;;;;;;1999.90;999.90;;;;;;;;;;5114794;27;20232;-76
2022/04/21 09:56:19;;;;;;;1999.90;999.90;;;;;;;;;;5085943;28;20301;-76
2022/04/21 09:58:47;;;;;;;1999.90;999.90;;;;;;;;;;5061515;28;20234;-76
2022/04/21 10:01:15;;;;;;;1999.90;999.90;;;;;;;;;;5082305;28;20236;-76
2022/04/21 10:03:44;;;;;;;1999.90;999.90;;;;;;;;;;5071571;28;20238;-76
2022/04/21 10:06:12;;;;;;;1999.90;999.90;;;;;;;;;;5089129;28;20239;-76
2022/04/21 10:08:42;;;;;;;1999.90;999.90;;;;;;;;;;5100400;28;20280;-76
2022/04/21 10:11:10;;;;;;;1999.90;999.90;;;;;;;;;;5064236;28;20258;-76
2022/04/21 10:13:37;;;;;;;1999.90;999.90;;;;;;;;;;5090670;27;20234;-76
2022/04/21 10:16:07;;;;;;;1999.90;999.90;;;;;;;;;;5121756;27;20694;-76
2022/04/21 10:18:35;;;;;;;1999.90;999.90;;;;;;;;;;5100129;27;20230;-76
2022/04/21 10:21:05;;;;;;;1999.90;999.90;;;;;;;;;;5083315;28;20231;-76
2022/04/21 10:23:35;;;;;;;1999.90;999.90;;;;;;;;;;5095385;28;20313;-76
2022/04/21 10:26:04;;;;;;;1999.90;999.90;;;;;;;;;;5068571;28;20714;-76
2022/04/21 10:28:55;;;;;;;1999.90;999.90;;;;;;;;;;5096112;28;20256;-76
2022/04/21 10:31:30;;;;;;;1999.90;999.90;;;;;;;;;;5083512;28;20244;-76
2022/04/21 10:33:59;;;;;;;1999.90;999.90;;;;;;;;;;5082116;28;20244;-75
2022/04/21 10:36:34;;;;;;;1999.90;999.90;;;;;;;;;;5074615;28;20721;-75
2022/04/21 10:39:30;;;;;;;1999.90;999.90;;;;;;;;;;5089495;28;20802;-75
2022/04/21 10:42:14;;;;;;;1999.90;999.90;;;;;;;;;;5066979;28;20237;-75
2022/04/21 10:44:43;;;;;;;1999.90;999.90;;;;;;;;;;5080795;28;20788;-75
2022/04/21 10:47:29;;;;;;;1999.90;999.90;;;;;;;;;;5079755;28;20224;-76
2022/04/21 10:49:57;;;;;;;1999.90;999.90;;;;;;;;;;5110334;27;20690;-76
2022/04/21 10:58:47;;;;;;;1999.90;999.90;;;;;;;;;;5085528;28;20228;-75
2022/04/21 11:01:16;;;;;;;1999.90;999.90;;;;;;;;;;5069804;28;20227;-75
2022/04/21 11:03:45;;;;;;;1999.90;999.90;;;;;;;;;;5089371;28;20231;-76
2022/04/21 11:06:14;;;;;;;1999.90;999.90;;;;;;;;;;5090178;28;20246;-76
2022/04/21 11:08:43;;;;;;;1999.90;999.90;;;;;;;;;;5093956;28;20235;-76
2022/04/21 11:11:13;;;;;;;1999.90;999.90;;;;;;;;;;5098027;27;20238;-75
2022/04/21 11:13:41;;;;;;;1999.90;999.90;;;;;;;;;;5088105;27;20310;-77
2022/04/21 11:16:09;;;;;;;1999.90;999.90;;;;;;;;;;5125440;27;20270;-76
2022/04/21 11:18:36;;;;;;;1999.90;999.90;;;;;;;;;;5095108;28;21217;-76
2022/04/21 11:21:20;;;;;;;1999.90;999.90;;;;;;;;;;5128686;27;20285;-76
2022/04/21 11:24:02;;;;;;;1999.90;999.90;;;;;;;;;;5091043;28;20709;-76
2022/04/21 11:26:29;;;;;;;1999.90;999.90;;;;;;;;;;5086118;28;21067;-76
2022/04/21 11:29:04;;;;;;;1999.90;999.90;;;;;;;;;;5079643;28;20228;-76
2022/04/21 11:31:31;;;;;;;1999.90;999.90;;;;;;;;;;5107560;27;20227;-76
2022/04/21 11:34:03;;;;;;;1999.90;999.90;;;;;;;;;;5130660;27;20808;-76
2022/04/21 11:36:34;;;;;;;1999.90;999.90;;;;;;;;;;5092434;27;20228;-75
2022/04/21 11:39:07;;;;;;;1999.90;999.90;;;;;;;;;;5128703;27;20784;-76
2022/04/21 11:41:41;;;;;;;1999.90;999.90;;;;;;;;;;5100852;28;20229;-76
2022/04/21 11:44:08;;;;;;;1999.90;999.90;;;;;;;;;;5090241;28;20223;-77
2022/04/21 11:46:37;;;;;;;1999.90;999.90;;;;;;;;;;5091703;28;20235;-75
2022/04/21 11:49:05;;;;;;;1999.90;999.90;;;;;;;;;;5089550;28;20227;-76
2022/04/21 11:51:33;;;;;;;1999.90;999.90;;;;;;;;;;5097763;28;20238;-76
2022/04/21 11:54:03;;;;;;;1999.90;999.90;;;;;;;;;;5088285;28;20227;-76
2022/04/21 11:56:32;;;;;;;1999.90;999.90;;;;;;;;;;5083839;28;20674;-74
2022/04/21 11:59:05;;;;;;;1999.90;999.90;;;;;;;;;;5088318;28;20695;-75
2022/04/21 12:07:02;;;;;;;1999.90;999.90;;;;;;;;;;5098187;28;20231;-75
2022/04/21 12:09:33;;;;;;;1999.90;999.90;;;;;;;;;;5089575;28;20216;-75
2022/04/21 12:12:03;;;;;;;1999.90;999.90;;;;;;;;;;5104473;28;20325;-75
2022/04/21 12:14:31;;;;;;;1999.90;999.90;;;;;;;;;;5097419;27;20239;-76
2022/04/21 12:16:59;;;;;;;1999.90;999.90;;;;;;;;;;5092371;28;20227;-76
2022/04/21 12:19:32;;;;;;;1999.90;999.90;;;;;;;;;;5090340;28;20231;-75
2022/04/21 12:22:01;;;;;;;1999.90;999.90;;;;;;;;;;5100935;28;20223;-75
2022/04/21 12:24:36;;;;;;;1999.90;999.90;;;;;;;;;;5066712;28;20227;-75
2022/04/21 12:27:06;;;;;;;1999.90;999.90;;;;;;;;;;5094661;28;20238;-75
2022/04/21 12:29:45;;;;;;;1999.90;999.90;;;;;;;;;;5096838;27;20228;-76
2022/04/21 12:32:13;;;;;;;1999.90;999.90;;;;;;;;;;5090155;28;20245;-76
2022/04/21 12:34:40;;;;;;;1999.90;999.90;;;;;;;;;;5100200;27;21081;-76
2022/04/21 12:37:08;;;;;;;1999.90;999.90;;;;;;;;;;5090107;28;20230;-75
2022/04/21 12:39:37;;;;;;;1999.90;999.90;;;;;;;;;;5103042;27;20223;-75
2022/04/21 12:42:27;;;;;;;1999.90;999.90;;;;;;;;;;5093667;28;20287;-76
2022/04/21 12:44:55;;;;;;;1999.90;999.90;;;;;;;;;;5089274;28;20313;-76
2022/04/21 12:47:23;;;;;;;1999.90;999.90;;;;;;;;;;5098435;27;20258;-76
2022/04/21 12:49:54;;;;;;;1999.90;999.90;;;;;;;;;;5123738;27;20231;-77
2022/04/21 12:52:29;;;;;;;1999.90;999.90;;;;;;;;;;5099793;28;20230;-75
2022/04/21 12:54:56;;;;;;;1999.90;999.90;;;;;;;;;;5094835;28;20661;-75
2022/04/21 12:57:27;;;;;;;1999.90;999.90;;;;;;;;;;5124877;27;20226;-75
2022/04/21 12:59:54;;;;;;;1999.90;999.90;;;;;;;;;;5084960;28;20662;-76
2022/04/21 13:02:22;;;;;;;1999.90;999.90;;;;;;;;;;5097803;28;20708;-77
2022/04/21 13:04:50;;;;;;;1999.90;999.90;;;;;;;;;;5080371;28;20235;-75
2022/04/21 13:07:17;;;;;;;1999.90;999.90;;;;;;;;;;5080524;28;20228;-75
2022/04/21 13:09:45;;;;;;;1999.90;999.90;;;;;;;;;;5083153;28;20236;-75
2022/04/21 13:12:12;;;;;;;1999.90;999.90;;;;;;;;;;5082733;28;20251;-76
2022/04/21 13:14:41;;;;;;;1999.90;999.90;;;;;;;;;;5085107;28;20657;-76
2022/04/21 13:17:09;;;;;;;1999.90;999.90;;;;;;;;;;5077986;28;20255;-76
2022/04/21 13:19:36;;;;;;;1999.90;999.90;;;;;;;;;;5086467;28;20306;-76
2022/04/21 13:22:03;;;;;;;1999.90;999.90;;;;;;;;;;5076931;28;20236;-76
2022/04/21 13:24:32;;;;;;;1999.90;999.90;;;;;;;;;;5075271;28;20835;-76
2022/04/21 13:27:00;;;;;;;1999.90;999.90;;;;;;;;;;5079124;28;20266;-75
2022/04/21 13:29:29;;;;;;;1999.90;999.90;;;;;;;;;;5115286;27;20234;-75
2022/04/21 13:34:43;;;;;;;1999.90;999.90;;;;;;;;;;5113803;27;20231;-76
2022/04/21 13:37:11;;;;;;;1999.90;999.90;;;;;;;;;;5107286;27;20279;-75
2022/04/21 13:39:40;;;;;;;1999.90;999.90;;;;;;;;;;5082061;28;20231;-75
2022/04/21 13:42:09;;;;;;;1999.90;999.90;;;;;;;;;;5077773;28;20232;-75
2022/04/21 13:44:36;;;;;;;1999.90;999.90;;;;;;;;;;5064618;28;20277;-76
2022/04/21 13:47:25;;;;;;;1999.90;999.90;;;;;;;;;;5102803;27;20231;-75
2022/04/21 13:49:53;;;;;;;1999.90;999.90;;;;;;;;;;5080283;28;20312;-75
2022/04/21 13:52:21;;;;;;;1999.90;999.90;;;;;;;;;;5050839;28;20231;-75
2022/04/21 13:54:50;;;;;;;1999.90;999.90;;;;;;;;;;5076964;28;20258;-75
2022/04/21 13:57:17;;;;;;;1999.90;999.90;;;;;;;;;;5074163;28;20679;-76
2022/04/21 13:59:45;;;;;;;1999.90;999.90;;;;;;;;;;5081163;28;20320;-76
2022/04/21 14:02:12;;;;;;;1999.90;999.90;;;;;;;;;;5079189;28;20236;-75
2022/04/21 14:04:42;;;;;;;1999.90;999.90;;;;;;;;;;5076083;28;21118;-75
2022/04/21 14:07:10;;;;;;;1999.90;999.90;;;;;;;;;;5087084;28;20231;-76
2022/04/21 14:09:37;;;;;;;1999.90;999.90;;;;;;;;;;5073062;28;20234;-75
2022/04/21 14:12:05;;;;;;;1999.90;999.90;;;;;;;;;;5069997;28;20265;-75
2022/04/21 14:14:33;;;;;;;1999.90;999.90;;;;;;;;;;5074478;28;20232;-76
2022/04/21 14:17:02;;;;;;;1999.90;999.90;;;;;;;;;;5081831;28;20232;-75
2022/04/21 14:19:30;;;;;;;1999.90;999.90;;;;;;;;;;5057926;28;20693;-75
2022/04/21 14:21:59;;;;;;;1999.90;999.90;;;;;;;;;;5072152;28;20285;-76
2022/04/21 14:24:26;;;;;;;1999.90;999.90;;;;;;;;;;5068460;28;20219;-76
2022/04/21 14:26:54;;;;;;;1999.90;999.90;;;;;;;;;;5075131;28;20218;-75
2022/04/21 14:29:22;;;;;;;1999.90;999.90;;;;;;;;;;5071391;28;21527;-75
2022/04/21 14:31:49;;;;;;;1999.90;999.90;;;;;;;;;;5072109;28;20226;-76
2022/04/21 14:34:17;;;;;;;1999.90;999.90;;;;;;;;;;5056131;28;20235;-76
2022/04/21 14:36:44;;;;;;;1999.90;999.90;;;;;;;;;;5113940;27;20238;-76
2022/04/21 14:44:44;;;;;;;1999.90;999.90;;;;;;;;;;5072473;28;20240;-75
2022/04/21 14:47:11;;;;;;;1999.90;999.90;;;;;;;;;;5079698;28;20282;-75
2022/04/21 14:49:55;;;;;;;1999.90;999.90;;;;;;;;;;5103385;27;20314;-74
2022/04/21 14:52:22;;;;;;;1999.90;999.90;;;;;;;;;;5109934;27;20240;-75
2022/04/21 14:54:51;;;;;;;1999.90;999.90;;;;;;;;;;5085564;27;22060;-75
2022/04/21 14:57:19;;;;;;;1999.90;999.90;;;;;;;;;;5085546;28;20236;-75
2022/04/21 14:59:47;;;;;;;1999.90;999.90;;;;;;;;;;5089014;28;20230;-76
2022/04/21 15:02:15;;;;;;;1999.90;999.90;;;;;;;;;;5099788;27;20281;-76
2022/04/21 15:04:42;;;;;;;1999.90;999.90;;;;;;;;;;5121829;27;20235;-76
2022/04/21 15:07:10;;;;;;;1999.90;999.90;;;;;;;;;;5059129;28;20224;-75
2022/04/21 15:09:38;;;;;;;1999.90;999.90;;;;;;;;;;5071102;28;20238;-75
2022/04/21 15:12:08;;;;;;;1999.90;999.90;;;;;;;;;;5074465;28;20235;-75
2022/04/21 15:14:36;;;;;;;1999.90;999.90;;;;;;;;;;5079436;28;20301;-76